createdAt,value
2022-09-14T00:00:24.511Z,19.02
2022-09-14T00:01:26.558Z,19.06
2022-09-14T00:02:24.745Z,19.05
2022-09-14T00:03:24.678Z,19.07
2022-09-14T00:04:24.630Z,18.94
2022-09-14T00:05:24.662Z,18.96
2022-09-14T00:06:24.690Z,18.96
2022-09-14T00:07:24.719Z,19.00
2022-09-14T00:08:24.746Z,19.02
2022-09-14T00:09:24.777Z,18.91
2022-09-14T00:10:24.831Z,18.96
2022-09-14T00:11:24.873Z,18.96
2022-09-14T00:12:24.868Z,18.96
2022-09-14T00:13:24.898Z,18.97
2022-09-14T00:14:24.925Z,19.00
2022-09-14T00:15:24.959Z,18.97
2022-09-14T00:16:25.054Z,19.02
2022-09-14T00:17:25.032Z,18.91
2022-09-14T00:18:25.043Z,18.90
2022-09-14T00:19:25.075Z,18.90
2022-09-14T00:20:25.104Z,18.90
2022-09-14T00:21:25.135Z,18.91
2022-09-14T00:22:25.162Z,18.91
2022-09-14T00:23:25.194Z,18.90
2022-09-14T00:24:25.235Z,18.91
2022-09-14T00:25:25.252Z,18.94
2022-09-14T00:26:25.280Z,18.96
2022-09-14T00:27:25.311Z,18.97
2022-09-14T00:28:25.339Z,18.93
2022-09-14T00:29:25.371Z,19.05
2022-09-14T00:30:25.398Z,18.97
2022-09-14T00:31:25.502Z,18.90
2022-09-14T00:32:25.470Z,18.90
2022-09-14T00:33:25.506Z,18.89
2022-09-14T00:34:25.516Z,18.87
2022-09-14T00:35:25.547Z,18.97
2022-09-14T00:36:25.576Z,18.99
2022-09-14T00:37:25.613Z,18.96
2022-09-14T00:38:25.641Z,18.94
2022-09-14T00:39:25.667Z,18.90
2022-09-14T00:40:25.760Z,18.96
2022-09-14T00:41:25.726Z,18.90
2022-09-14T00:42:25.753Z,19.00
2022-09-14T00:43:25.786Z,18.93
2022-09-14T00:44:25.812Z,18.97
2022-09-14T00:45:25.871Z,18.96
2022-09-14T00:46:25.872Z,19.05
2022-09-14T00:47:25.904Z,18.96
2022-09-14T00:48:25.931Z,18.97
2022-09-14T00:49:25.982Z,18.97
2022-09-14T00:50:25.989Z,18.99
2022-09-14T00:51:26.022Z,18.97
2022-09-14T00:52:26.049Z,19.05
2022-09-14T00:53:26.082Z,19.07
2022-09-14T00:54:26.108Z,19.07
2022-09-14T00:55:26.141Z,19.02
2022-09-14T00:56:26.168Z,19.02
2022-09-14T00:57:26.200Z,19.02
2022-09-14T00:58:26.229Z,19.02
2022-09-14T00:59:26.258Z,19.06
2022-09-14T01:00:26.289Z,19.07
2022-09-14T01:01:26.454Z,19.02
2022-09-14T01:02:26.397Z,19.06
2022-09-14T01:03:26.378Z,19.06
2022-09-14T01:04:26.405Z,19.02
2022-09-14T01:05:26.454Z,19.13
2022-09-14T01:06:26.466Z,19.09
2022-09-14T01:07:26.497Z,19.05
2022-09-14T01:08:26.524Z,19.00
2022-09-14T01:09:26.556Z,19.09
2022-09-14T01:10:26.584Z,19.12
2022-09-14T01:11:26.617Z,19.06
2022-09-14T01:12:26.649Z,19.02
2022-09-14T01:13:26.679Z,19.09
2022-09-14T01:14:26.704Z,19.12
2022-09-14T01:15:26.735Z,19.05
2022-09-14T01:16:26.851Z,19.00
2022-09-14T01:17:26.795Z,19.09
2022-09-14T01:18:26.822Z,19.10
2022-09-14T01:19:26.855Z,19.05
2022-09-14T01:20:26.892Z,19.09
2022-09-14T01:21:26.935Z,19.09
2022-09-14T01:22:26.942Z,19.06
2022-09-14T01:23:26.974Z,19.00
2022-09-14T01:24:27.001Z,19.02
2022-09-14T01:25:27.035Z,18.99
2022-09-14T01:26:27.059Z,18.96
2022-09-14T01:27:27.092Z,18.93
2022-09-14T01:29:14.745Z,19.05
2022-09-14T01:30:14.773Z,18.96
2022-09-14T01:31:14.840Z,18.99
2022-09-14T01:32:14.831Z,19.13
2022-09-14T01:33:14.860Z,19.05
2022-09-14T01:34:14.892Z,19.00
2022-09-14T01:35:16.105Z,18.99
2022-09-14T01:36:14.949Z,19.00
2022-09-14T01:37:14.997Z,19.00
2022-09-14T01:38:15.011Z,19.09
2022-09-14T01:39:15.037Z,19.12
2022-09-14T01:40:15.108Z,19.15
2022-09-14T01:41:15.098Z,18.99
2022-09-14T01:42:15.128Z,18.94
2022-09-14T01:43:15.155Z,19.00
2022-09-14T01:44:15.188Z,18.96
2022-09-14T01:45:15.218Z,19.10
2022-09-14T01:46:15.307Z,19.09
2022-09-14T01:47:15.279Z,19.05
2022-09-14T01:48:15.307Z,19.06
2022-09-14T01:49:15.337Z,19.09
2022-09-14T01:50:15.369Z,19.06
2022-09-14T01:51:15.396Z,19.06
2022-09-14T01:52:15.427Z,19.06
2022-09-14T01:53:15.471Z,19.06
2022-09-14T01:54:15.489Z,19.07
2022-09-14T01:55:15.514Z,19.10
2022-09-14T01:56:15.547Z,19.07
2022-09-14T01:57:15.578Z,19.13
2022-09-14T01:58:15.607Z,19.16
2022-09-14T01:59:15.635Z,19.15
2022-09-14T02:00:15.667Z,19.13
2022-09-14T02:01:15.780Z,19.13
2022-09-14T02:02:15.792Z,19.13
2022-09-14T02:03:15.755Z,19.12
2022-09-14T02:04:15.786Z,19.13
2022-09-14T02:05:15.815Z,19.06
2022-09-14T02:06:15.848Z,19.13
2022-09-14T02:07:15.875Z,19.16
2022-09-14T02:08:15.905Z,19.09
2022-09-14T02:09:15.952Z,19.05
2022-09-14T02:10:15.966Z,19.05
2022-09-14T02:11:15.996Z,18.99
2022-09-14T02:12:16.025Z,19.00
2022-09-14T02:13:16.053Z,19.00
2022-09-14T02:14:16.086Z,18.99
2022-09-14T02:15:16.111Z,19.00
2022-09-14T02:16:16.238Z,19.02
2022-09-14T02:17:16.175Z,18.99
2022-09-14T02:18:16.205Z,19.06
2022-09-14T02:19:18.365Z,19.15
2022-09-14T02:20:16.263Z,19.09
2022-09-14T02:21:16.290Z,19.09
2022-09-14T02:22:16.327Z,19.16
2022-09-14T02:23:16.351Z,19.12
2022-09-14T02:24:16.383Z,19.09
2022-09-14T02:25:16.427Z,19.16
2022-09-14T02:26:16.442Z,19.12
2022-09-14T02:27:16.471Z,19.10
2022-09-14T02:28:16.501Z,19.16
2022-09-14T02:29:16.529Z,19.13
2022-09-14T02:30:16.563Z,19.07
2022-09-14T02:31:16.666Z,19.10
2022-09-14T02:32:16.619Z,19.10
2022-09-14T02:33:16.648Z,19.07
2022-09-14T02:34:16.680Z,19.16
2022-09-14T02:35:16.727Z,19.09
2022-09-14T02:37:19.331Z,19.19
2022-09-14T02:38:19.363Z,19.19
2022-09-14T02:39:19.390Z,19.09
2022-09-14T02:40:19.508Z,19.15
2022-09-14T02:41:19.449Z,19.16
2022-09-14T02:42:19.481Z,19.10
2022-09-14T02:43:19.511Z,19.10
2022-09-14T02:44:19.640Z,19.13
2022-09-14T02:45:19.569Z,19.19
2022-09-14T02:46:19.679Z,19.06
2022-09-14T02:47:19.627Z,19.07
2022-09-14T02:48:19.661Z,19.07
2022-09-14T02:49:19.710Z,19.13
2022-09-14T02:50:19.717Z,19.09
2022-09-14T02:51:19.746Z,19.02
2022-09-14T02:52:19.777Z,19.06
2022-09-14T02:53:19.805Z,19.05
2022-09-14T02:54:19.835Z,19.09
2022-09-14T02:55:19.863Z,18.99
2022-09-14T02:56:19.913Z,19.09
2022-09-14T02:57:19.924Z,19.09
2022-09-14T02:58:19.955Z,18.99
2022-09-14T02:59:19.982Z,19.00
2022-09-14T03:00:20.015Z,19.05
2022-09-14T03:01:20.112Z,19.07
2022-09-14T03:02:20.181Z,19.02
2022-09-14T03:03:20.102Z,19.09
2022-09-14T03:04:20.133Z,19.06
2022-09-14T03:05:20.160Z,19.10
2022-09-14T03:06:20.192Z,19.06
2022-09-14T03:07:20.226Z,19.12
2022-09-14T03:08:20.253Z,19.12
2022-09-14T03:09:20.281Z,19.09
2022-09-14T03:10:20.310Z,19.15
2022-09-14T03:11:20.339Z,19.12
2022-09-14T03:13:28.000Z,19.00
2022-09-14T03:14:28.009Z,19.12
2022-09-14T03:15:28.036Z,19.06
2022-09-14T03:16:28.109Z,19.02
2022-09-14T03:17:28.095Z,19.06
2022-09-14T03:18:28.130Z,19.13
2022-09-14T03:19:28.156Z,19.09
2022-09-14T03:20:28.186Z,19.15
2022-09-14T03:21:28.216Z,19.06
2022-09-14T03:22:28.247Z,19.12
2022-09-14T03:23:28.281Z,19.05
2022-09-14T03:24:28.305Z,19.15
2022-09-14T03:25:28.333Z,19.05
2022-09-14T03:26:28.364Z,19.12
2022-09-14T03:27:28.393Z,19.15
2022-09-14T03:28:28.424Z,19.13
2022-09-14T03:29:28.555Z,19.06
2022-09-14T03:30:28.485Z,19.06
2022-09-14T03:31:28.604Z,19.06
2022-09-14T03:32:28.546Z,19.05
2022-09-14T03:33:28.574Z,19.00
2022-09-14T03:34:28.606Z,19.09
2022-09-14T03:35:28.632Z,19.15
2022-09-14T03:36:28.662Z,19.05
2022-09-14T03:37:28.690Z,19.10
2022-09-14T03:38:28.722Z,19.07
2022-09-14T03:39:28.819Z,19.15
2022-09-14T03:40:28.833Z,19.13
2022-09-14T03:41:28.810Z,19.06
2022-09-14T03:42:28.843Z,19.13
2022-09-14T03:43:28.868Z,19.07
2022-09-14T03:44:28.899Z,19.15
2022-09-14T03:45:28.946Z,19.12
2022-09-14T03:46:29.016Z,19.10
2022-09-14T03:47:28.989Z,19.07
2022-09-14T03:48:29.023Z,19.19
2022-09-14T03:49:29.250Z,19.16
2022-09-14T03:50:29.079Z,19.06
2022-09-14T03:51:29.108Z,19.13
2022-09-14T03:52:29.139Z,19.23
2022-09-14T03:53:29.317Z,19.17
2022-09-14T03:54:29.205Z,19.17
2022-09-14T03:55:29.226Z,19.12
2022-09-14T03:56:29.259Z,19.12
2022-09-14T03:57:29.285Z,19.09
2022-09-14T03:58:29.315Z,19.09
2022-09-14T03:59:29.346Z,19.12
2022-09-14T04:00:29.376Z,19.15
2022-09-14T04:01:29.491Z,19.13
2022-09-14T04:02:29.476Z,19.09
2022-09-14T04:03:29.466Z,19.15
2022-09-14T04:04:29.494Z,19.16
2022-09-14T04:05:29.524Z,19.17
2022-09-14T04:06:29.555Z,19.13
2022-09-14T04:07:29.584Z,19.12
2022-09-14T04:08:29.615Z,19.15
2022-09-14T04:09:29.642Z,19.15
2022-09-14T04:10:29.675Z,19.19
2022-09-14T04:11:29.703Z,19.16
2022-09-14T04:12:29.734Z,19.12
2022-09-14T04:13:29.763Z,19.12
2022-09-14T04:14:29.796Z,19.12
2022-09-14T04:15:29.822Z,19.19
2022-09-14T04:16:29.926Z,19.12
2022-09-14T04:17:29.986Z,19.16
2022-09-14T04:18:29.912Z,19.13
2022-09-14T04:19:29.944Z,19.07
2022-09-14T04:20:29.973Z,19.12
2022-09-14T04:21:30.000Z,19.10
2022-09-14T04:22:30.035Z,19.10
2022-09-14T04:23:30.061Z,19.15
2022-09-14T04:24:30.977Z,19.05
2022-09-14T04:25:30.123Z,19.05
2022-09-14T04:26:30.149Z,19.15
2022-09-14T04:27:30.191Z,19.05
2022-09-14T04:28:30.360Z,19.17
2022-09-14T04:29:30.254Z,19.07
2022-09-14T04:30:30.270Z,19.07
2022-09-14T04:31:30.392Z,19.09
2022-09-14T04:32:34.170Z,19.05
2022-09-14T04:33:30.373Z,19.06
2022-09-14T04:34:30.389Z,19.12
2022-09-14T04:35:30.417Z,19.05
2022-09-14T04:36:30.447Z,19.02
2022-09-14T04:37:30.476Z,19.09
2022-09-14T04:38:30.507Z,19.10
2022-09-14T04:39:30.536Z,19.12
2022-09-14T04:40:30.590Z,19.10
2022-09-14T04:41:30.599Z,19.15
2022-09-14T04:42:30.626Z,19.16
2022-09-14T04:43:30.654Z,19.09
2022-09-14T04:44:30.685Z,19.15
2022-09-14T04:45:30.713Z,19.17
2022-09-14T04:46:30.916Z,19.17
2022-09-14T04:47:30.771Z,19.23
2022-09-14T04:48:30.802Z,19.17
2022-09-14T04:49:30.849Z,19.19
2022-09-14T04:50:30.863Z,19.24
2022-09-14T04:51:30.894Z,19.24
2022-09-14T04:52:30.922Z,19.15
2022-09-14T04:53:30.953Z,19.19
2022-09-14T04:54:30.983Z,19.16
2022-09-14T04:55:31.110Z,19.15
2022-09-14T04:56:31.041Z,19.17
2022-09-14T04:57:31.070Z,19.24
2022-09-14T04:58:31.100Z,19.19
2022-09-14T04:59:31.129Z,19.19
2022-09-14T05:00:31.160Z,19.16
2022-09-14T05:01:31.264Z,19.15
2022-09-14T05:02:31.359Z,19.23
2022-09-14T05:03:31.299Z,19.17
2022-09-14T05:04:31.282Z,19.13
2022-09-14T05:05:31.324Z,19.07
2022-09-14T05:06:31.339Z,19.19
2022-09-14T05:07:31.368Z,19.20
2022-09-14T05:08:31.397Z,19.23
2022-09-14T05:09:31.430Z,19.12
2022-09-14T05:10:31.459Z,19.17
2022-09-14T05:11:31.487Z,19.17
2022-09-14T05:12:31.518Z,19.16
2022-09-14T05:13:31.546Z,19.17
2022-09-14T05:14:31.577Z,19.16
2022-09-14T05:15:31.780Z,19.12
2022-09-14T05:16:31.638Z,19.17
2022-09-14T05:17:31.664Z,19.17
2022-09-14T05:18:31.696Z,19.16
2022-09-14T05:19:31.724Z,19.24
2022-09-14T05:20:31.757Z,19.19
2022-09-14T05:21:31.935Z,19.16
2022-09-14T05:22:31.832Z,19.10
2022-09-14T05:23:31.845Z,19.06
2022-09-14T05:24:31.875Z,19.06
2022-09-14T05:25:31.903Z,19.17
2022-09-14T05:26:31.934Z,19.23
2022-09-14T05:27:31.961Z,19.07
2022-09-14T05:28:32.198Z,19.16
2022-09-14T05:29:32.114Z,19.16
2022-09-14T05:30:32.053Z,19.20
2022-09-14T05:31:32.165Z,19.07
2022-09-14T05:32:32.113Z,19.07
2022-09-14T05:33:32.142Z,19.19
2022-09-14T05:34:32.173Z,19.20
2022-09-14T05:35:32.203Z,19.17
2022-09-14T05:36:32.434Z,19.06
2022-09-14T05:37:32.281Z,19.10
2022-09-14T05:38:32.292Z,19.05
2022-09-14T05:39:32.321Z,19.09
2022-09-14T05:40:32.377Z,19.15
2022-09-14T05:41:32.379Z,19.05
2022-09-14T05:42:32.413Z,19.00
2022-09-14T05:43:32.437Z,18.94
2022-09-14T05:44:32.619Z,19.09
2022-09-14T05:45:32.494Z,19.06
2022-09-14T05:46:32.580Z,19.02
2022-09-14T05:47:34.897Z,19.05
2022-09-14T05:48:32.604Z,19.06
2022-09-14T05:49:32.614Z,19.09
2022-09-14T05:50:32.653Z,19.09
2022-09-14T05:51:32.690Z,19.05
2022-09-14T05:52:32.706Z,19.15
2022-09-14T05:53:32.752Z,19.15
2022-09-14T05:54:32.768Z,19.12
2022-09-14T05:55:32.794Z,19.15
2022-09-14T05:56:32.828Z,19.16
2022-09-14T05:57:32.866Z,19.06
2022-09-14T05:58:32.899Z,19.16
2022-09-14T05:59:32.916Z,19.16
2022-09-14T06:00:32.958Z,19.10
2022-09-14T06:01:33.151Z,19.16
2022-09-14T06:02:33.016Z,19.15
2022-09-14T06:03:33.041Z,19.02
2022-09-14T06:04:33.076Z,19.02
2022-09-14T06:05:33.438Z,19.05
2022-09-14T06:06:33.135Z,19.06
2022-09-14T06:07:33.150Z,18.94
2022-09-14T06:08:33.179Z,19.00
2022-09-14T06:09:33.480Z,18.99
2022-09-14T06:11:33.268Z,18.99
2022-09-14T06:13:33.324Z,19.09
2022-09-14T06:15:33.402Z,19.02
2022-09-14T06:16:33.414Z,19.12
2022-09-14T06:17:33.766Z,19.07
2022-09-14T06:18:33.486Z,19.12
2022-09-14T06:21:33.783Z,19.07
2022-09-14T06:22:33.604Z,19.13
2022-09-14T06:24:33.665Z,19.15
2022-09-14T06:27:33.964Z,19.23
2022-09-14T06:28:33.797Z,19.16
2022-09-14T06:29:33.814Z,19.19
2022-09-14T06:30:33.866Z,19.07
2022-09-14T06:31:33.880Z,19.05
2022-09-14T06:32:33.901Z,19.24
2022-09-14T06:33:34.132Z,19.19
2022-09-14T06:34:33.965Z,19.17
2022-09-14T06:35:33.994Z,19.13
2022-09-14T06:37:34.053Z,19.15
2022-09-14T06:38:34.286Z,19.15
2022-09-14T06:40:34.214Z,19.16
2022-09-14T06:41:34.175Z,19.19
2022-09-14T06:42:34.186Z,19.19
2022-09-14T06:43:34.255Z,19.17
2022-09-14T06:44:34.262Z,19.19
2022-09-14T06:45:34.488Z,19.20
2022-09-14T06:46:34.320Z,19.19
2022-09-14T06:48:34.379Z,19.20
2022-09-14T06:49:34.611Z,19.06
2022-09-14T06:50:34.639Z,19.00
2022-09-14T06:51:34.467Z,18.90
2022-09-14T06:52:34.492Z,18.86
2022-09-14T06:53:34.528Z,18.84
2022-09-14T06:55:34.572Z,18.82
2022-09-14T06:56:34.615Z,18.75
2022-09-14T06:57:34.650Z,18.89
2022-09-14T06:58:34.675Z,18.82
2022-09-14T06:59:34.712Z,18.87
2022-09-14T07:00:34.733Z,18.84
2022-09-14T07:01:34.962Z,18.86
2022-09-14T07:02:35.035Z,18.87
2022-09-14T07:03:34.826Z,18.79
2022-09-14T07:04:35.053Z,18.76
2022-09-14T07:05:34.887Z,18.79
2022-09-14T07:06:34.912Z,18.76
2022-09-14T07:07:35.142Z,18.74
2022-09-14T07:09:35.006Z,18.65
2022-09-14T07:10:35.232Z,18.69
2022-09-14T07:12:35.092Z,18.49
2022-09-14T07:13:35.319Z,18.44
2022-09-14T07:14:35.149Z,18.38
2022-09-14T07:15:35.482Z,18.41
2022-09-14T07:16:35.205Z,18.39
2022-09-14T07:17:35.227Z,18.54
2022-09-14T07:18:35.253Z,18.45
2022-09-14T07:19:35.283Z,18.47
2022-09-14T07:20:35.311Z,18.49
2022-09-14T07:21:35.340Z,18.56
2022-09-14T07:22:35.370Z,18.49
2022-09-14T07:23:35.404Z,18.53
2022-09-14T07:24:35.429Z,18.51
2022-09-14T07:25:35.457Z,18.57
2022-09-14T07:26:35.488Z,18.54
2022-09-14T07:28:18.069Z,18.41
2022-09-14T07:29:18.100Z,18.54
2022-09-14T07:30:18.136Z,18.32
2022-09-14T07:31:18.218Z,18.23
2022-09-14T07:32:18.195Z,18.20
2022-09-14T07:33:18.216Z,18.21
2022-09-14T07:34:18.249Z,18.19
2022-09-14T07:35:18.286Z,18.17
2022-09-14T07:36:18.503Z,18.20
2022-09-14T07:38:27.086Z,18.19
2022-09-14T07:39:18.420Z,18.20
2022-09-14T07:40:18.486Z,18.17
2022-09-14T07:41:18.448Z,18.21
2022-09-14T07:42:18.478Z,18.26
2022-09-14T07:43:18.504Z,18.26
2022-09-14T07:44:18.535Z,18.27
2022-09-14T07:45:21.185Z,18.27
2022-09-14T07:46:18.679Z,18.23
2022-09-14T07:48:16.347Z,18.23
2022-09-14T07:49:16.286Z,18.27
2022-09-14T07:50:16.311Z,18.26
2022-09-14T07:51:16.342Z,18.26
2022-09-14T07:52:16.378Z,18.23
2022-09-14T07:53:16.401Z,18.26
2022-09-14T07:54:16.428Z,18.17
2022-09-14T07:55:16.458Z,18.20
2022-09-14T07:56:16.580Z,18.23
2022-09-14T07:57:16.517Z,18.17
2022-09-14T07:58:16.546Z,18.27
2022-09-14T07:59:35.029Z,18.23
2022-09-14T08:00:16.602Z,18.24
2022-09-14T08:01:16.704Z,18.19
2022-09-14T08:02:16.708Z,18.19
2022-09-14T08:03:16.693Z,18.23
2022-09-14T08:04:16.741Z,18.21
2022-09-14T08:05:16.752Z,18.27
2022-09-14T08:06:16.785Z,18.35
2022-09-14T08:07:16.808Z,18.31
2022-09-14T08:08:16.837Z,18.26
2022-09-14T08:09:16.869Z,18.26
2022-09-14T08:10:16.896Z,18.29
2022-09-14T08:11:16.928Z,18.36
2022-09-14T08:12:16.954Z,18.31
2022-09-14T08:13:16.985Z,18.32
2022-09-14T08:14:17.016Z,18.26
2022-09-14T08:15:17.044Z,18.27
2022-09-14T08:16:17.107Z,18.44
2022-09-14T08:17:17.307Z,18.39
2022-09-14T08:18:17.136Z,18.31
2022-09-14T08:19:17.336Z,18.31
2022-09-14T08:20:17.232Z,18.41
2022-09-14T08:21:17.221Z,18.44
2022-09-14T08:22:17.248Z,18.47
2022-09-14T08:23:17.278Z,18.44
2022-09-14T08:24:17.310Z,18.54
2022-09-14T08:25:17.338Z,18.49
2022-09-14T08:26:17.374Z,18.53
2022-09-14T08:27:17.489Z,18.54
2022-09-14T08:28:17.427Z,18.63
2022-09-14T08:29:17.455Z,18.57
2022-09-14T08:30:17.483Z,18.60
2022-09-14T08:31:17.588Z,18.59
2022-09-14T08:32:17.544Z,18.51
2022-09-14T08:33:17.777Z,18.59
2022-09-14T08:34:17.606Z,18.49
2022-09-14T08:35:17.631Z,18.60
2022-09-14T08:36:17.764Z,18.54
2022-09-14T08:37:17.894Z,18.60
2022-09-14T08:38:17.718Z,18.59
2022-09-14T08:39:17.767Z,18.69
2022-09-14T08:41:17.809Z,18.75
2022-09-14T08:42:17.839Z,18.66
2022-09-14T08:43:17.867Z,18.61
2022-09-14T08:44:17.899Z,18.75
2022-09-14T08:45:17.929Z,18.59
2022-09-14T08:46:17.957Z,18.60
2022-09-14T08:47:17.986Z,18.66
2022-09-14T08:48:18.020Z,18.68
2022-09-14T08:49:18.249Z,18.75
2022-09-14T08:50:18.113Z,18.66
2022-09-14T08:51:18.111Z,18.61
2022-09-14T08:52:22.666Z,18.63
2022-09-14T08:53:18.165Z,18.65
2022-09-14T08:54:18.194Z,18.68
2022-09-14T08:55:18.223Z,18.66
2022-09-14T08:56:18.256Z,18.71
2022-09-14T08:57:18.284Z,18.66
2022-09-14T08:58:18.315Z,18.72
2022-09-14T08:59:18.340Z,18.66
2022-09-14T09:00:18.372Z,18.65
2022-09-14T09:01:18.503Z,18.66
2022-09-14T09:02:18.433Z,18.59
2022-09-14T09:03:18.459Z,18.66
2022-09-14T09:04:18.546Z,18.57
2022-09-14T09:05:18.519Z,18.69
2022-09-14T09:06:18.550Z,18.71
2022-09-14T09:07:18.577Z,18.66
2022-09-14T09:08:18.640Z,18.72
2022-09-14T09:09:18.638Z,18.74
2022-09-14T09:10:18.669Z,18.71
2022-09-14T09:11:18.698Z,18.69
2022-09-14T09:12:18.730Z,18.61
2022-09-14T09:13:18.959Z,18.69
2022-09-14T09:14:18.810Z,18.66
2022-09-14T09:15:18.816Z,18.75
2022-09-14T09:16:18.901Z,18.63
2022-09-14T09:17:18.876Z,18.72
2022-09-14T09:18:18.912Z,18.74
2022-09-14T09:19:18.933Z,18.74
2022-09-14T09:20:18.966Z,18.76
2022-09-14T09:21:18.996Z,18.68
2022-09-14T09:22:19.025Z,18.69
2022-09-14T09:23:19.266Z,18.63
2022-09-14T09:24:19.105Z,18.63
2022-09-14T09:25:19.114Z,18.74
2022-09-14T09:26:19.148Z,18.63
2022-09-14T09:27:19.171Z,18.74
2022-09-14T09:28:19.202Z,18.66
2022-09-14T09:29:19.241Z,18.75
2022-09-14T09:30:19.266Z,18.65
2022-09-14T09:31:19.324Z,18.69
2022-09-14T09:32:19.324Z,18.66
2022-09-14T09:33:19.454Z,18.63
2022-09-14T09:34:19.381Z,18.72
2022-09-14T09:35:19.409Z,18.60
2022-09-14T09:36:19.442Z,18.63
2022-09-14T09:37:19.469Z,18.60
2022-09-14T09:38:19.502Z,18.74
2022-09-14T09:39:19.529Z,18.56
2022-09-14T09:40:19.702Z,18.56
2022-09-14T09:41:19.590Z,18.57
2022-09-14T09:42:19.621Z,18.65
2022-09-14T09:43:33.565Z,18.57
2022-09-14T09:44:19.678Z,18.68
2022-09-14T09:45:19.708Z,18.71
2022-09-14T09:46:19.810Z,18.54
2022-09-14T09:47:19.770Z,18.50
2022-09-14T09:48:19.798Z,18.53
2022-09-14T09:49:19.826Z,18.53
2022-09-14T09:50:19.867Z,18.35
2022-09-14T09:51:23.943Z,18.41
2022-09-14T09:52:19.919Z,18.38
2022-09-14T09:53:19.965Z,18.34
2022-09-14T09:54:19.974Z,18.38
2022-09-14T09:55:20.006Z,18.36
2022-09-14T09:56:20.083Z,18.56
2022-09-14T09:57:20.076Z,18.50
2022-09-14T09:58:20.094Z,18.47
2022-09-14T09:59:20.136Z,18.51
2022-09-14T10:00:20.158Z,18.36
2022-09-14T10:01:20.549Z,18.42
2022-09-14T10:02:20.369Z,18.56
2022-09-14T10:03:20.512Z,18.41
2022-09-14T10:04:20.274Z,18.36
2022-09-14T10:05:20.312Z,18.42
2022-09-14T10:06:20.347Z,18.42
2022-09-14T10:07:20.373Z,18.50
2022-09-14T10:08:20.391Z,18.53
2022-09-14T10:09:20.422Z,18.53
2022-09-14T10:10:20.451Z,18.56
2022-09-14T10:11:20.484Z,18.50
2022-09-14T10:12:20.546Z,18.50
2022-09-14T10:13:20.636Z,18.49
2022-09-14T10:14:20.570Z,18.56
2022-09-14T10:15:20.597Z,18.57
2022-09-14T10:16:20.970Z,18.63
2022-09-14T10:17:20.659Z,18.75
2022-09-14T10:18:20.689Z,18.60
2022-09-14T10:19:20.717Z,18.72
2022-09-14T10:20:20.750Z,18.71
2022-09-14T10:21:20.788Z,18.74
2022-09-14T10:22:25.668Z,18.71
2022-09-14T10:23:20.991Z,18.74
2022-09-14T10:24:20.868Z,18.71
2022-09-14T10:25:20.898Z,18.75
2022-09-14T10:26:20.928Z,18.65
2022-09-14T10:27:20.958Z,18.53
2022-09-14T10:28:21.013Z,18.56
2022-09-14T10:29:21.015Z,18.54
2022-09-14T10:30:21.059Z,18.66
2022-09-14T10:31:21.145Z,18.65
2022-09-14T10:32:21.119Z,18.54
2022-09-14T10:33:21.454Z,18.51
2022-09-14T10:34:21.165Z,18.50
2022-09-14T10:35:21.195Z,18.53
2022-09-14T10:36:21.240Z,18.41
2022-09-14T10:37:21.265Z,18.39
2022-09-14T10:38:21.299Z,18.50
2022-09-14T10:39:25.431Z,18.57
2022-09-14T10:40:21.366Z,18.50
2022-09-14T10:41:21.373Z,18.49
2022-09-14T10:42:21.421Z,18.53
2022-09-14T10:43:21.445Z,18.36
2022-09-14T10:44:21.483Z,18.44
2022-09-14T10:45:21.507Z,18.56
2022-09-14T10:46:21.549Z,18.56
2022-09-14T10:47:21.773Z,18.65
2022-09-14T11:54:30.605Z,19.00
2022-09-14T11:55:30.544Z,18.84
2022-09-14T11:56:30.569Z,18.82
2022-09-14T11:57:30.589Z,18.78
2022-09-14T11:58:30.631Z,18.89
2022-09-14T11:59:30.663Z,18.71
2022-09-14T12:00:30.687Z,18.66
2022-09-14T12:01:30.721Z,18.79
2022-09-14T12:02:30.774Z,18.90
2022-09-14T12:03:30.824Z,18.96
2022-09-14T12:04:31.415Z,19.16
2022-09-14T12:05:30.841Z,19.24
2022-09-14T12:06:31.781Z,19.31
2022-09-14T12:07:31.102Z,19.19
2022-09-14T12:08:30.933Z,19.23
2022-09-14T12:09:30.963Z,19.16
2022-09-14T12:10:31.506Z,19.19
2022-09-14T12:11:31.220Z,18.96
2022-09-14T12:13:31.478Z,18.76
2022-09-14T12:14:31.312Z,18.74
2022-09-14T12:16:34.499Z,18.84
2022-09-14T12:17:40.346Z,18.78
2022-09-14T12:19:31.243Z,18.75
2022-09-14T12:20:31.274Z,18.84
2022-09-14T12:21:31.302Z,18.79
2022-09-14T12:22:31.335Z,18.75
2022-09-14T12:23:31.363Z,18.75
2022-09-14T12:24:31.395Z,18.72
2022-09-14T12:25:31.422Z,18.78
2022-09-14T12:26:31.573Z,18.79
2022-09-14T12:27:31.483Z,18.72
2022-09-14T12:28:31.514Z,18.81
2022-09-14T12:29:31.546Z,18.89
2022-09-14T12:30:31.575Z,18.91
2022-09-14T12:31:31.683Z,18.87
2022-09-14T12:32:31.637Z,18.94
2022-09-14T12:33:31.662Z,18.91
2022-09-14T12:34:31.697Z,18.96
2022-09-14T12:35:31.725Z,19.02
2022-09-14T12:36:31.756Z,19.05
2022-09-14T12:37:31.784Z,19.05
2022-09-14T12:38:31.815Z,18.97
2022-09-14T12:39:31.849Z,19.12
2022-09-14T12:40:31.925Z,19.19
2022-09-14T12:41:31.905Z,19.15
2022-09-14T12:42:31.959Z,19.17
2022-09-14T12:43:31.967Z,19.20
2022-09-14T12:44:31.998Z,19.13
2022-09-14T12:45:32.027Z,19.09
2022-09-14T12:46:32.134Z,18.91
2022-09-14T12:47:32.089Z,18.66
2022-09-14T12:48:32.119Z,18.59
2022-09-14T12:49:32.148Z,18.54
2022-09-14T12:50:32.180Z,18.53
2022-09-14T12:51:32.208Z,18.54
2022-09-14T12:52:32.241Z,18.60
2022-09-14T12:53:32.268Z,18.63
2022-09-14T12:54:32.300Z,18.56
2022-09-14T12:55:32.329Z,18.65
2022-09-14T12:56:32.361Z,18.68
2022-09-14T12:57:32.388Z,18.75
2022-09-14T12:58:32.474Z,18.71
2022-09-14T12:59:32.449Z,18.61
2022-09-14T13:00:35.527Z,18.65
2022-09-14T13:01:32.611Z,18.56
2022-09-14T13:02:32.720Z,18.54
2022-09-14T13:03:32.569Z,18.61
2022-09-14T13:04:32.604Z,18.72
2022-09-14T13:05:32.631Z,18.69
2022-09-14T13:06:32.662Z,18.74
2022-09-14T13:07:32.690Z,18.75
2022-09-14T13:08:32.720Z,18.74
2022-09-14T13:09:32.752Z,18.59
2022-09-14T13:10:32.782Z,18.54
2022-09-14T13:11:32.807Z,18.50
2022-09-14T13:12:32.849Z,18.65
2022-09-14T13:13:32.871Z,18.57
2022-09-14T13:14:32.919Z,18.61
2022-09-14T13:15:32.973Z,18.60
2022-09-14T13:16:32.962Z,18.65
2022-09-14T13:17:33.010Z,18.65
2022-09-14T13:18:33.024Z,18.75
2022-09-14T13:19:33.055Z,18.74
2022-09-14T13:20:33.083Z,18.74
2022-09-14T13:21:33.110Z,18.76
2022-09-14T13:22:33.143Z,18.84
2022-09-14T13:23:33.170Z,18.82
2022-09-14T13:24:33.203Z,18.76
2022-09-14T13:25:33.268Z,18.78
2022-09-14T13:26:33.264Z,18.72
2022-09-14T13:27:33.291Z,18.69
2022-09-14T13:28:33.323Z,18.79
2022-09-14T13:29:33.351Z,18.78
2022-09-14T13:30:33.556Z,18.74
2022-09-14T13:31:33.411Z,18.59
2022-09-14T13:32:33.444Z,18.71
2022-09-14T13:33:33.470Z,18.78
2022-09-14T13:34:33.503Z,18.75
2022-09-14T13:35:33.538Z,18.74
2022-09-14T13:36:33.565Z,18.78
2022-09-14T13:37:33.591Z,18.75
2022-09-14T13:38:33.623Z,18.76
2022-09-14T13:39:33.651Z,18.76
2022-09-14T13:40:33.756Z,18.76
2022-09-14T13:41:33.712Z,18.72
2022-09-14T13:42:33.743Z,18.74
2022-09-14T13:43:33.773Z,18.72
2022-09-14T13:44:33.804Z,18.76
2022-09-14T13:45:33.910Z,18.81
2022-09-14T13:46:34.001Z,18.76
2022-09-14T13:47:33.893Z,18.65
2022-09-14T13:48:33.925Z,18.81
2022-09-14T13:49:33.955Z,18.81
2022-09-14T13:50:33.986Z,18.84
2022-09-14T13:51:34.012Z,18.79
2022-09-14T13:53:00.046Z,18.72
2022-09-14T13:53:34.073Z,18.79
2022-09-14T13:54:34.109Z,18.76
2022-09-14T13:55:34.136Z,18.78
2022-09-14T13:56:34.185Z,18.72
2022-09-14T13:57:34.194Z,18.71
2022-09-14T13:58:35.816Z,18.76
2022-09-14T13:59:34.454Z,18.76
2022-09-14T14:00:34.286Z,18.81
2022-09-14T14:01:34.505Z,18.86
2022-09-14T14:02:34.382Z,18.79
2022-09-14T14:03:34.383Z,18.82
2022-09-14T14:04:34.408Z,18.74
2022-09-14T14:05:34.432Z,18.75
2022-09-14T14:06:34.466Z,18.72
2022-09-14T14:07:34.494Z,18.72
2022-09-14T14:08:34.527Z,18.75
2022-09-14T14:09:34.554Z,18.72
2022-09-14T14:10:34.584Z,18.59
2022-09-14T14:11:34.617Z,18.54
2022-09-14T14:12:35.252Z,18.50
2022-09-14T14:13:34.671Z,18.56
2022-09-14T14:14:34.704Z,18.51
2022-09-14T14:15:37.354Z,18.39
2022-09-14T14:16:34.835Z,18.34
2022-09-14T14:17:34.789Z,18.36
2022-09-14T14:18:34.839Z,18.31
2022-09-14T14:19:34.849Z,18.27
2022-09-14T14:20:34.878Z,18.36
2022-09-14T14:21:34.906Z,18.35
2022-09-14T14:23:23.168Z,18.32